sensor_id;sensor_type;location;lat;lon;timestamp;pressure;altitude;pressure_sealevel;temperature;humidity
77366;BME280;66430;50.182;11.704;2023-10-09T00:02:11;95250.89;;;15.89;41.89
77366;BME280;66430;50.182;11.704;2023-10-09T00:04:36;95250.56;;;15.77;42.17
77366;BME280;66430;50.182;11.704;2023-10-09T00:07:00;95251.13;;;15.50;42.64
77366;BME280;66430;50.182;11.704;2023-10-09T00:09:26;95241.74;;;15.85;42.97
77366;BME280;66430;50.182;11.704;2023-10-09T00:11:52;95236.25;;;15.26;43.09
77366;BME280;66430;50.182;11.704;2023-10-09T00:14:17;95238.34;;;15.91;42.91
77366;BME280;66430;50.182;11.704;2023-10-09T00:16:42;95232.64;;;15.55;43.20
77366;BME280;66430;50.182;11.704;2023-10-09T00:19:07;95230.06;;;15.42;43.54
77366;BME280;66430;50.182;11.704;2023-10-09T00:21:33;95227.69;;;15.59;43.24
77366;BME280;66430;50.182;11.704;2023-10-09T00:23:58;95223.76;;;15.37;43.35
77366;BME280;66430;50.182;11.704;2023-10-09T00:26:24;95219.80;;;15.74;42.68
77366;BME280;66430;50.182;11.704;2023-10-09T00:28:49;95215.88;;;15.91;42.67
77366;BME280;66430;50.182;11.704;2023-10-09T00:31:15;95212.14;;;15.49;42.78
77366;BME280;66430;50.182;11.704;2023-10-09T00:33:40;95208.76;;;15.71;42.38
77366;BME280;66430;50.182;11.704;2023-10-09T00:36:06;95202.92;;;16.20;42.19
77366;BME280;66430;50.182;11.704;2023-10-09T00:38:31;95204.23;;;16.31;41.90
77366;BME280;66430;50.182;11.704;2023-10-09T00:40:56;95201.12;;;15.80;41.99
77366;BME280;66430;50.182;11.704;2023-10-09T00:43:22;95197.89;;;16.24;42.00
77366;BME280;66430;50.182;11.704;2023-10-09T00:45:47;95191.59;;;16.01;41.70
77366;BME280;66430;50.182;11.704;2023-10-09T00:48:13;95189.41;;;16.03;41.84
77366;BME280;66430;50.182;11.704;2023-10-09T00:50:38;95186.07;;;15.55;42.12
77366;BME280;66430;50.182;11.704;2023-10-09T00:53:05;95187.19;;;16.13;42.07
77366;BME280;66430;50.182;11.704;2023-10-09T00:55:32;95186.11;;;15.98;41.86
77366;BME280;66430;50.182;11.704;2023-10-09T00:57:55;95184.15;;;15.73;42.50
77366;BME280;66430;50.182;11.704;2023-10-09T01:00:19;95182.46;;;15.39;42.47
77366;BME280;66430;50.182;11.704;2023-10-09T01:02:45;95181.29;;;15.93;42.19
77366;BME280;66430;50.182;11.704;2023-10-09T01:05:10;95171.61;;;15.54;41.99
77366;BME280;66430;50.182;11.704;2023-10-09T01:07:37;95162.74;;;15.92;41.88
77366;BME280;66430;50.182;11.704;2023-10-09T01:10:01;95153.84;;;15.73;42.41
77366;BME280;66430;50.182;11.704;2023-10-09T01:12:26;95146.99;;;15.93;42.13
77366;BME280;66430;50.182;11.704;2023-10-09T01:14:51;95137.49;;;16.15;41.78
77366;BME280;66430;50.182;11.704;2023-10-09T01:17:17;95133.59;;;15.63;42.29
77366;BME280;66430;50.182;11.704;2023-10-09T01:19:42;95122.45;;;15.69;41.81
77366;BME280;66430;50.182;11.704;2023-10-09T01:22:07;95113.97;;;15.73;41.69
77366;BME280;66430;50.182;11.704;2023-10-09T01:24:33;95114.58;;;16.20;41.49
77366;BME280;66430;50.182;11.704;2023-10-09T01:26:58;95114.52;;;16.24;41.72
77366;BME280;66430;50.182;11.704;2023-10-09T01:29:24;95113.69;;;15.86;41.59
77366;BME280;66430;50.182;11.704;2023-10-09T01:31:51;95107.00;;;15.74;41.65
77366;BME280;66430;50.182;11.704;2023-10-09T01:34:14;95099.85;;;15.77;41.73
77366;BME280;66430;50.182;11.704;2023-10-09T01:36:39;95095.16;;;15.68;42.07
77366;BME280;66430;50.182;11.704;2023-10-09T01:39:05;95085.30;;;16.05;41.56
77366;BME280;66430;50.182;11.704;2023-10-09T01:41:30;95079.36;;;15.60;41.71
77366;BME280;66430;50.182;11.704;2023-10-09T01:43:55;95075.88;;;15.87;41.51
77366;BME280;66430;50.182;11.704;2023-10-09T01:46:20;95071.31;;;16.14;41.59
77366;BME280;66430;50.182;11.704;2023-10-09T01:48:46;95064.51;;;15.50;41.98
77366;BME280;66430;50.182;11.704;2023-10-09T01:51:14;95060.74;;;16.08;41.65
77366;BME280;66430;50.182;11.704;2023-10-09T01:53:37;95062.41;;;16.23;41.31
77366;BME280;66430;50.182;11.704;2023-10-09T01:56:08;95061.49;;;15.69;41.43
77366;BME280;66430;50.182;11.704;2023-10-09T01:58:27;95065.75;;;16.04;41.53
77366;BME280;66430;50.182;11.704;2023-10-09T02:00:52;95068.77;;;15.77;41.52
77366;BME280;66430;50.182;11.704;2023-10-09T02:03:18;95067.65;;;15.71;41.66
77366;BME280;66430;50.182;11.704;2023-10-09T02:05:43;95068.89;;;15.76;41.99
77366;BME280;66430;50.182;11.704;2023-10-09T02:08:09;95066.00;;;15.74;42.17
77366;BME280;66430;50.182;11.704;2023-10-09T02:10:34;95067.60;;;15.68;42.16
77366;BME280;66430;50.182;11.704;2023-10-09T02:13:01;95070.92;;;15.41;41.78
77366;BME280;66430;50.182;11.704;2023-10-09T02:15:26;95065.71;;;15.47;42.72
77366;BME280;66430;50.182;11.704;2023-10-09T02:17:50;95061.45;;;16.09;42.17
77366;BME280;66430;50.182;11.704;2023-10-09T02:20:16;95060.42;;;15.78;42.11
77366;BME280;66430;50.182;11.704;2023-10-09T02:22:43;95056.53;;;15.63;42.38
77366;BME280;66430;50.182;11.704;2023-10-09T02:25:07;95055.03;;;15.61;41.92
77366;BME280;66430;50.182;11.704;2023-10-09T02:27:32;95062.67;;;15.03;42.43
77366;BME280;66430;50.182;11.704;2023-10-09T02:29:57;95065.50;;;15.23;43.08
77366;BME280;66430;50.182;11.704;2023-10-09T02:32:22;95068.87;;;14.93;42.98
77366;BME280;66430;50.182;11.704;2023-10-09T02:34:48;95069.93;;;15.03;43.02
77366;BME280;66430;50.182;11.704;2023-10-09T02:37:13;95070.92;;;15.11;42.96
77366;BME280;66430;50.182;11.704;2023-10-09T02:39:39;95065.85;;;15.06;42.77
77366;BME280;66430;50.182;11.704;2023-10-09T02:42:04;95062.23;;;14.69;43.01
77366;BME280;66430;50.182;11.704;2023-10-09T02:44:29;95060.51;;;14.77;43.24
77366;BME280;66430;50.182;11.704;2023-10-09T02:46:55;95055.93;;;15.07;42.81
77366;BME280;66430;50.182;11.704;2023-10-09T02:49:20;95050.68;;;15.47;42.77
77366;BME280;66430;50.182;11.704;2023-10-09T02:51:46;95052.84;;;15.14;42.78
77366;BME280;66430;50.182;11.704;2023-10-09T02:54:11;95049.82;;;15.25;43.05
77366;BME280;66430;50.182;11.704;2023-10-09T02:56:36;95045.13;;;15.32;42.87
77366;BME280;66430;50.182;11.704;2023-10-09T02:59:01;95045.68;;;15.44;42.55
77366;BME280;66430;50.182;11.704;2023-10-09T03:01:26;95045.36;;;15.34;42.58
77366;BME280;66430;50.182;11.704;2023-10-09T03:03:52;95037.76;;;15.79;42.41
77366;BME280;66430;50.182;11.704;2023-10-09T03:06:17;95036.13;;;15.58;42.31
77366;BME280;66430;50.182;11.704;2023-10-09T03:08:43;95032.73;;;15.58;42.41
77366;BME280;66430;50.182;11.704;2023-10-09T03:11:08;95025.50;;;15.20;42.66
77366;BME280;66430;50.182;11.704;2023-10-09T03:13:33;95009.89;;;14.90;43.45
77366;BME280;66430;50.182;11.704;2023-10-09T03:15:58;94995.81;;;15.30;42.74
77366;BME280;66430;50.182;11.704;2023-10-09T03:18:24;94987.29;;;15.06;42.92
77366;BME280;66430;50.182;11.704;2023-10-09T03:20:49;94980.98;;;15.57;42.87
77366;BME280;66430;50.182;11.704;2023-10-09T03:23:15;94978.45;;;15.59;42.95
77366;BME280;66430;50.182;11.704;2023-10-09T03:25:41;94972.37;;;15.70;42.84
77366;BME280;66430;50.182;11.704;2023-10-09T03:28:07;94974.32;;;15.26;43.17
77366;BME280;66430;50.182;11.704;2023-10-09T03:30:32;94982.40;;;15.35;43.03
77366;BME280;66430;50.182;11.704;2023-10-09T03:32:58;94981.29;;;15.59;42.70
77366;BME280;66430;50.182;11.704;2023-10-09T03:35:23;94991.32;;;15.01;43.37
77366;BME280;66430;50.182;11.704;2023-10-09T03:37:48;94996.61;;;15.24;43.78
77366;BME280;66430;50.182;11.704;2023-10-09T03:40:14;94991.02;;;15.29;43.21
77366;BME280;66430;50.182;11.704;2023-10-09T03:42:38;94987.77;;;15.47;43.34
77366;BME280;66430;50.182;11.704;2023-10-09T03:45:05;94992.93;;;15.54;43.18
77366;BME280;66430;50.182;11.704;2023-10-09T03:47:30;95005.24;;;15.36;43.61
77366;BME280;66430;50.182;11.704;2023-10-09T03:49:55;95009.55;;;15.04;44.03
77366;BME280;66430;50.182;11.704;2023-10-09T03:52:21;94998.85;;;15.37;43.46
77366;BME280;66430;50.182;11.704;2023-10-09T03:54:46;94999.83;;;15.25;43.60
77366;BME280;66430;50.182;11.704;2023-10-09T03:57:16;94993.19;;;15.44;43.04
77366;BME280;66430;50.182;11.704;2023-10-09T03:59:37;94997.91;;;15.50;43.19
77366;BME280;66430;50.182;11.704;2023-10-09T04:02:02;95004.40;;;15.28;43.52
77366;BME280;66430;50.182;11.704;2023-10-09T04:04:28;95001.92;;;15.41;43.41
77366;BME280;66430;50.182;11.704;2023-10-09T04:06:53;95006.93;;;15.47;43.77
77366;BME280;66430;50.182;11.704;2023-10-09T04:09:19;94992.68;;;15.11;43.13
77366;BME280;66430;50.182;11.704;2023-10-09T04:11:44;94986.77;;;15.59;43.46
77366;BME280;66430;50.182;11.704;2023-10-09T04:14:09;94983.86;;;15.56;43.24
77366;BME280;66430;50.182;11.704;2023-10-09T04:16:35;94974.20;;;15.85;43.13
77366;BME280;66430;50.182;11.704;2023-10-09T04:19:01;94976.09;;;15.70;42.83
77366;BME280;66430;50.182;11.704;2023-10-09T04:21:27;94979.29;;;15.73;43.26
77366;BME280;66430;50.182;11.704;2023-10-09T04:23:51;94976.07;;;15.79;43.39
77366;BME280;66430;50.182;11.704;2023-10-09T04:26:17;94980.01;;;15.94;43.21
77366;BME280;66430;50.182;11.704;2023-10-09T04:28:42;94979.90;;;15.69;43.27
77366;BME280;66430;50.182;11.704;2023-10-09T04:31:08;94979.51;;;15.76;43.38
77366;BME280;66430;50.182;11.704;2023-10-09T04:33:33;94991.16;;;15.28;43.81
77366;BME280;66430;50.182;11.704;2023-10-09T04:36:02;94989.48;;;15.07;44.34
77366;BME280;66430;50.182;11.704;2023-10-09T04:38:24;94989.16;;;15.36;44.25
77366;BME280;66430;50.182;11.704;2023-10-09T04:40:49;94986.25;;;15.51;43.95
77366;BME280;66430;50.182;11.704;2023-10-09T04:43:15;94978.86;;;15.46;44.08
77366;BME280;66430;50.182;11.704;2023-10-09T04:45:40;94980.54;;;15.54;43.95
77366;BME280;66430;50.182;11.704;2023-10-09T04:48:06;94970.56;;;15.62;43.58
77366;BME280;66430;50.182;11.704;2023-10-09T04:50:31;94972.37;;;15.90;43.61
77366;BME280;66430;50.182;11.704;2023-10-09T04:52:56;94972.38;;;15.18;44.02
77366;BME280;66430;50.182;11.704;2023-10-09T04:55:22;94973.45;;;15.92;43.37
77366;BME280;66430;50.182;11.704;2023-10-09T04:57:47;94969.25;;;15.19;43.58
77366;BME280;66430;50.182;11.704;2023-10-09T05:00:14;94969.31;;;15.63;43.74
77366;BME280;66430;50.182;11.704;2023-10-09T05:02:37;94966.98;;;15.42;43.45
77366;BME280;66430;50.182;11.704;2023-10-09T05:05:04;94966.31;;;15.42;43.64
77366;BME280;66430;50.182;11.704;2023-10-09T05:07:28;94970.97;;;15.73;43.74
77366;BME280;66430;50.182;11.704;2023-10-09T05:09:54;94970.78;;;15.55;44.09
77366;BME280;66430;50.182;11.704;2023-10-09T05:12:19;94973.18;;;15.35;44.07
77366;BME280;66430;50.182;11.704;2023-10-09T05:14:44;94977.60;;;15.33;44.56
77366;BME280;66430;50.182;11.704;2023-10-09T05:17:10;94970.57;;;15.32;44.86
77366;BME280;66430;50.182;11.704;2023-10-09T05:19:36;94965.08;;;15.15;44.54
77366;BME280;66430;50.182;11.704;2023-10-09T05:22:02;94959.24;;;15.87;43.75
77366;BME280;66430;50.182;11.704;2023-10-09T05:24:28;94966.84;;;15.32;44.43
77366;BME280;66430;50.182;11.704;2023-10-09T05:26:53;94967.28;;;15.80;43.93
77366;BME280;66430;50.182;11.704;2023-10-09T05:29:19;94959.41;;;15.51;44.37
77366;BME280;66430;50.182;11.704;2023-10-09T05:31:45;94951.37;;;15.95;43.56
77366;BME280;66430;50.182;11.704;2023-10-09T05:34:09;94948.24;;;15.69;44.09
77366;BME280;66430;50.182;11.704;2023-10-09T05:36:35;94939.64;;;15.48;44.04
77366;BME280;66430;50.182;11.704;2023-10-09T05:39:01;94937.07;;;15.81;43.94
77366;BME280;66430;50.182;11.704;2023-10-09T05:41:26;94938.88;;;15.51;43.60
77366;BME280;66430;50.182;11.704;2023-10-09T05:43:52;94941.17;;;15.73;44.08
77366;BME280;66430;50.182;11.704;2023-10-09T05:46:18;94938.47;;;15.41;44.49
77366;BME280;66430;50.182;11.704;2023-10-09T05:48:43;94939.96;;;16.05;43.67
77366;BME280;66430;50.182;11.704;2023-10-09T05:51:09;94945.34;;;15.37;43.88
77366;BME280;66430;50.182;11.704;2023-10-09T05:53:34;94942.92;;;15.45;44.51
77366;BME280;66430;50.182;11.704;2023-10-09T05:56:00;94944.44;;;15.19;44.63
77366;BME280;66430;50.182;11.704;2023-10-09T05:58:26;94946.82;;;15.86;44.25
77366;BME280;66430;50.182;11.704;2023-10-09T06:00:51;94948.59;;;15.59;44.46
77366;BME280;66430;50.182;11.704;2023-10-09T06:03:16;94951.67;;;15.83;44.27
77366;BME280;66430;50.182;11.704;2023-10-09T06:05:41;94951.77;;;15.68;44.67
77366;BME280;66430;50.182;11.704;2023-10-09T06:08:06;94952.62;;;15.11;45.52
77366;BME280;66430;50.182;11.704;2023-10-09T06:10:32;94952.82;;;15.65;45.11
77366;BME280;66430;50.182;11.704;2023-10-09T06:12:57;94958.65;;;15.79;44.81
77366;BME280;66430;50.182;11.704;2023-10-09T06:15:23;94962.60;;;15.43;44.74
77366;BME280;66430;50.182;11.704;2023-10-09T06:17:48;94964.92;;;15.42;44.92
77366;BME280;66430;50.182;11.704;2023-10-09T06:20:13;94968.63;;;15.75;44.73
77366;BME280;66430;50.182;11.704;2023-10-09T06:22:39;94965.85;;;15.19;45.34
77366;BME280;66430;50.182;11.704;2023-10-09T06:25:05;94961.32;;;15.79;44.96
77366;BME280;66430;50.182;11.704;2023-10-09T06:27:30;94957.58;;;15.64;44.70
77366;BME280;66430;50.182;11.704;2023-10-09T06:29:56;94957.73;;;15.03;45.75
77366;BME280;66430;50.182;11.704;2023-10-09T06:32:20;94963.04;;;16.00;44.51
77366;BME280;66430;50.182;11.704;2023-10-09T06:34:47;94965.21;;;15.78;45.14
77366;BME280;66430;50.182;11.704;2023-10-09T06:37:12;94972.99;;;15.51;44.74
77366;BME280;66430;50.182;11.704;2023-10-09T06:39:37;94977.35;;;15.79;44.87
77366;BME280;66430;50.182;11.704;2023-10-09T06:42:03;94975.66;;;15.77;45.02
77366;BME280;66430;50.182;11.704;2023-10-09T06:44:28;94975.18;;;15.97;44.90
77366;BME280;66430;50.182;11.704;2023-10-09T06:46:53;94970.84;;;16.09;44.85
77366;BME280;66430;50.182;11.704;2023-10-09T06:49:18;94980.61;;;15.71;44.79
77366;BME280;66430;50.182;11.704;2023-10-09T06:51:44;94991.41;;;15.76;44.96
77366;BME280;66430;50.182;11.704;2023-10-09T06:54:10;94985.43;;;15.66;45.13
77366;BME280;66430;50.182;11.704;2023-10-09T06:56:36;94981.63;;;15.34;45.28
77366;BME280;66430;50.182;11.704;2023-10-09T06:59:03;94990.57;;;15.57;45.07
77366;BME280;66430;50.182;11.704;2023-10-09T07:01:27;94998.11;;;15.46;45.15
77366;BME280;66430;50.182;11.704;2023-10-09T07:03:52;94986.95;;;15.70;45.20
77366;BME280;66430;50.182;11.704;2023-10-09T07:06:18;94987.44;;;15.64;44.98
77366;BME280;66430;50.182;11.704;2023-10-09T07:08:43;94989.85;;;15.82;44.68
77366;BME280;66430;50.182;11.704;2023-10-09T07:11:08;94990.42;;;15.51;45.18
77366;BME280;66430;50.182;11.704;2023-10-09T07:13:34;94986.44;;;15.63;44.99
77366;BME280;66430;50.182;11.704;2023-10-09T07:15:59;94987.20;;;15.92;45.15
77366;BME280;66430;50.182;11.704;2023-10-09T07:18:25;94998.23;;;15.85;44.95
77366;BME280;66430;50.182;11.704;2023-10-09T07:20:50;95002.50;;;15.72;45.23
77366;BME280;66430;50.182;11.704;2023-10-09T07:23:16;95009.64;;;15.80;44.91
77366;BME280;66430;50.182;11.704;2023-10-09T07:25:42;95023.37;;;15.86;44.94
77366;BME280;66430;50.182;11.704;2023-10-09T07:28:09;95022.92;;;15.97;44.55
77366;BME280;66430;50.182;11.704;2023-10-09T07:30:32;95021.75;;;15.83;44.88
77366;BME280;66430;50.182;11.704;2023-10-09T07:32:59;95023.66;;;15.94;45.22
77366;BME280;66430;50.182;11.704;2023-10-09T07:35:23;95031.30;;;15.73;45.61
77366;BME280;66430;50.182;11.704;2023-10-09T07:37:53;95044.17;;;15.28;45.93
77366;BME280;66430;50.182;11.704;2023-10-09T07:40:18;95046.16;;;15.84;45.42
77366;BME280;66430;50.182;11.704;2023-10-09T07:42:39;95052.41;;;15.93;45.24
77366;BME280;66430;50.182;11.704;2023-10-09T07:45:05;95051.37;;;15.91;44.97
77366;BME280;66430;50.182;11.704;2023-10-09T07:47:31;95053.26;;;15.57;45.31
77366;BME280;66430;50.182;11.704;2023-10-09T07:49:55;95050.84;;;15.81;45.19
77366;BME280;66430;50.182;11.704;2023-10-09T07:52:21;95049.11;;;15.56;45.44
77366;BME280;66430;50.182;11.704;2023-10-09T07:54:52;95046.83;;;15.62;45.45
77366;BME280;66430;50.182;11.704;2023-10-09T07:57:13;95041.94;;;15.78;45.17
77366;BME280;66430;50.182;11.704;2023-10-09T07:59:37;95048.30;;;16.40;44.65
77366;BME280;66430;50.182;11.704;2023-10-09T08:02:02;95049.20;;;15.92;44.95
77366;BME280;66430;50.182;11.704;2023-10-09T08:04:28;95048.97;;;15.80;44.91
77366;BME280;66430;50.182;11.704;2023-10-09T08:06:53;95049.71;;;15.73;45.17
77366;BME280;66430;50.182;11.704;2023-10-09T08:09:19;95050.17;;;16.41;44.97
77366;BME280;66430;50.182;11.704;2023-10-09T08:11:47;95051.52;;;16.06;45.26
77366;BME280;66430;50.182;11.704;2023-10-09T08:14:09;95055.91;;;15.89;45.09
77366;BME280;66430;50.182;11.704;2023-10-09T08:16:35;95069.08;;;16.02;44.66
77366;BME280;66430;50.182;11.704;2023-10-09T08:19:00;95069.63;;;16.16;44.53
77366;BME280;66430;50.182;11.704;2023-10-09T08:21:26;95069.42;;;16.11;45.00
77366;BME280;66430;50.182;11.704;2023-10-09T08:23:51;95064.16;;;16.24;44.77
77366;BME280;66430;50.182;11.704;2023-10-09T08:26:18;95057.38;;;15.93;45.14
77366;BME280;66430;50.182;11.704;2023-10-09T08:28:42;95055.58;;;16.02;45.19
77366;BME280;66430;50.182;11.704;2023-10-09T08:31:09;95056.92;;;16.17;44.58
77366;BME280;66430;50.182;11.704;2023-10-09T08:33:32;95056.83;;;16.18;44.68
77366;BME280;66430;50.182;11.704;2023-10-09T08:35:57;95056.64;;;16.07;45.08
77366;BME280;66430;50.182;11.704;2023-10-09T08:38:22;95061.52;;;16.05;45.01
77366;BME280;66430;50.182;11.704;2023-10-09T08:40:47;95058.87;;;16.10;44.95
77366;BME280;66430;50.182;11.704;2023-10-09T08:43:15;95059.30;;;16.01;45.06
77366;BME280;66430;50.182;11.704;2023-10-09T08:45:41;95057.23;;;16.57;43.99
77366;BME280;66430;50.182;11.704;2023-10-09T08:48:10;95063.36;;;16.32;44.62
77366;BME280;66430;50.182;11.704;2023-10-09T08:50:30;95063.91;;;16.44;44.39
77366;BME280;66430;50.182;11.704;2023-10-09T08:52:56;95069.76;;;16.54;44.28
77366;BME280;66430;50.182;11.704;2023-10-09T08:55:21;95067.50;;;16.20;45.01
77366;BME280;66430;50.182;11.704;2023-10-09T08:57:46;95068.60;;;16.58;44.48
77366;BME280;66430;50.182;11.704;2023-10-09T09:00:16;95072.23;;;16.46;44.91
77366;BME280;66430;50.182;11.704;2023-10-09T09:02:37;95076.46;;;16.55;44.68
77366;BME280;66430;50.182;11.704;2023-10-09T09:07:28;95073.40;;;16.57;44.85
77366;BME280;66430;50.182;11.704;2023-10-09T09:09:55;95075.23;;;16.47;44.79
77366;BME280;66430;50.182;11.704;2023-10-09T09:12:18;95079.52;;;16.49;45.08
77366;BME280;66430;50.182;11.704;2023-10-09T09:14:43;95077.14;;;16.71;44.90
77366;BME280;66430;50.182;11.704;2023-10-09T09:17:09;95079.07;;;16.43;44.77
77366;BME280;66430;50.182;11.704;2023-10-09T09:19:34;95082.22;;;16.88;44.68
77366;BME280;66430;50.182;11.704;2023-10-09T09:21:59;95087.04;;;16.76;45.07
77366;BME280;66430;50.182;11.704;2023-10-09T09:24:25;95089.18;;;17.07;44.73
77366;BME280;66430;50.182;11.704;2023-10-09T09:26:51;95092.92;;;17.11;44.49
77366;BME280;66430;50.182;11.704;2023-10-09T09:29:15;95087.73;;;16.66;44.50
77366;BME280;66430;50.182;11.704;2023-10-09T09:31:51;95094.11;;;16.86;44.65
77366;BME280;66430;50.182;11.704;2023-10-09T09:34:06;95096.65;;;17.01;44.30
77366;BME280;66430;50.182;11.704;2023-10-09T09:36:34;95101.23;;;17.22;44.39
77366;BME280;66430;50.182;11.704;2023-10-09T09:38:58;95105.02;;;17.17;44.18
77366;BME280;66430;50.182;11.704;2023-10-09T09:41:24;95111.04;;;16.72;44.40
77366;BME280;66430;50.182;11.704;2023-10-09T09:43:47;95102.82;;;16.78;44.98
77366;BME280;66430;50.182;11.704;2023-10-09T09:46:13;95093.08;;;16.74;44.23
77366;BME280;66430;50.182;11.704;2023-10-09T09:48:38;95088.82;;;17.08;44.08
77366;BME280;66430;50.182;11.704;2023-10-09T09:51:03;95088.56;;;17.11;43.95
77366;BME280;66430;50.182;11.704;2023-10-09T09:53:29;95082.70;;;17.17;43.88
77366;BME280;66430;50.182;11.704;2023-10-09T09:55:54;95081.20;;;17.03;43.89
77366;BME280;66430;50.182;11.704;2023-10-09T09:58:20;95083.87;;;16.85;44.28
77366;BME280;66430;50.182;11.704;2023-10-09T10:00:45;95079.96;;;16.77;44.77
77366;BME280;66430;50.182;11.704;2023-10-09T10:03:12;95078.73;;;17.17;44.68
77366;BME280;66430;50.182;11.704;2023-10-09T10:05:37;95080.66;;;16.83;44.99
77366;BME280;66430;50.182;11.704;2023-10-09T10:08:03;95083.00;;;17.44;44.41
77366;BME280;66430;50.182;11.704;2023-10-09T10:10:36;95090.88;;;17.21;44.35
77366;BME280;66430;50.182;11.704;2023-10-09T10:12:52;95094.53;;;17.30;44.01
77366;BME280;66430;50.182;11.704;2023-10-09T10:15:17;95096.19;;;17.28;44.06
77366;BME280;66430;50.182;11.704;2023-10-09T10:20:10;95093.14;;;17.57;43.31
77366;BME280;66430;50.182;11.704;2023-10-09T10:22:34;95093.26;;;17.65;43.23
77366;BME280;66430;50.182;11.704;2023-10-09T10:24:59;95092.34;;;17.22;43.18
77366;BME280;66430;50.182;11.704;2023-10-09T10:27:26;95088.37;;;17.42;42.98
77366;BME280;66430;50.182;11.704;2023-10-09T10:32:15;95078.85;;;17.75;43.25
77366;BME280;66430;50.182;11.704;2023-10-09T10:34:52;95077.30;;;17.90;43.13
77366;BME280;66430;50.182;11.704;2023-10-09T10:37:06;95080.82;;;17.37;42.93
77366;BME280;66430;50.182;11.704;2023-10-09T10:39:31;95084.84;;;17.70;43.63
77366;BME280;66430;50.182;11.704;2023-10-09T10:41:57;95077.43;;;18.02;42.93
77366;BME280;66430;50.182;11.704;2023-10-09T10:44:28;95082.64;;;17.80;42.56
77366;BME280;66430;50.182;11.704;2023-10-09T10:46:48;95081.36;;;17.97;43.17
77366;BME280;66430;50.182;11.704;2023-10-09T10:49:23;95088.25;;;16.92;43.55
77366;BME280;66430;50.182;11.704;2023-10-09T10:51:39;95078.42;;;18.16;42.12
77366;BME280;66430;50.182;11.704;2023-10-09T10:54:04;95061.54;;;18.38;42.12
77366;BME280;66430;50.182;11.704;2023-10-09T10:56:37;95044.77;;;18.40;42.72
77366;BME280;66430;50.182;11.704;2023-10-09T10:58:54;95043.48;;;18.34;42.73
77366;BME280;66430;50.182;11.704;2023-10-09T11:01:19;95051.43;;;18.01;43.08
77366;BME280;66430;50.182;11.704;2023-10-09T11:03:44;95046.19;;;18.55;42.99
77366;BME280;66430;50.182;11.704;2023-10-09T11:06:10;95033.70;;;18.52;43.15
77366;BME280;66430;50.182;11.704;2023-10-09T11:08:35;95027.31;;;18.68;43.26
77366;BME280;66430;50.182;11.704;2023-10-09T11:11:11;95029.89;;;18.40;44.05
77366;BME280;66430;50.182;11.704;2023-10-09T11:13:27;95039.41;;;18.32;43.19
77366;BME280;66430;50.182;11.704;2023-10-09T11:15:52;95051.50;;;18.01;43.22
77366;BME280;66430;50.182;11.704;2023-10-09T11:18:17;95050.40;;;18.23;42.88
77366;BME280;66430;50.182;11.704;2023-10-09T11:20:43;95052.99;;;18.08;43.27
77366;BME280;66430;50.182;11.704;2023-10-09T11:23:08;95053.89;;;17.95;43.25
77366;BME280;66430;50.182;11.704;2023-10-09T11:25:33;95048.78;;;18.49;42.46
77366;BME280;66430;50.182;11.704;2023-10-09T11:27:59;95050.42;;;18.71;42.81
77366;BME280;66430;50.182;11.704;2023-10-09T11:30:31;95043.37;;;18.03;43.12
77366;BME280;66430;50.182;11.704;2023-10-09T11:32:49;95042.19;;;18.57;42.40
77366;BME280;66430;50.182;11.704;2023-10-09T11:35:15;95034.71;;;18.06;43.43
77366;BME280;66430;50.182;11.704;2023-10-09T11:37:39;95033.55;;;18.63;42.87
77366;BME280;66430;50.182;11.704;2023-10-09T11:40:05;95024.62;;;18.52;42.98
77366;BME280;66430;50.182;11.704;2023-10-09T11:42:30;95026.92;;;18.80;42.64
77366;BME280;66430;50.182;11.704;2023-10-09T11:44:55;95028.89;;;18.65;42.41
77366;BME280;66430;50.182;11.704;2023-10-09T11:47:20;95041.07;;;18.68;42.84
77366;BME280;66430;50.182;11.704;2023-10-09T11:49:48;95041.25;;;18.62;42.73
77366;BME280;66430;50.182;11.704;2023-10-09T11:52:11;95041.95;;;18.82;42.67
77366;BME280;66430;50.182;11.704;2023-10-09T11:54:36;95045.64;;;18.75;42.65
77366;BME280;66430;50.182;11.704;2023-10-09T11:57:01;95048.25;;;18.72;42.37
77366;BME280;66430;50.182;11.704;2023-10-09T11:59:26;95036.60;;;18.93;41.78
77366;BME280;66430;50.182;11.704;2023-10-09T12:01:51;95036.98;;;18.94;41.67
77366;BME280;66430;50.182;11.704;2023-10-09T12:04:17;95024.81;;;18.81;41.48
77366;BME280;66430;50.182;11.704;2023-10-09T12:06:42;95022.32;;;18.91;42.01
77366;BME280;66430;50.182;11.704;2023-10-09T12:09:08;95025.63;;;18.59;42.34
77366;BME280;66430;50.182;11.704;2023-10-09T12:11:33;95024.88;;;18.62;42.01
77366;BME280;66430;50.182;11.704;2023-10-09T12:13:58;95024.95;;;18.85;41.98
77366;BME280;66430;50.182;11.704;2023-10-09T12:16:24;95026.84;;;18.66;42.29
77366;BME280;66430;50.182;11.704;2023-10-09T12:18:50;95019.79;;;18.88;42.02
77366;BME280;66430;50.182;11.704;2023-10-09T12:21:15;95006.96;;;18.92;42.07
77366;BME280;66430;50.182;11.704;2023-10-09T12:23:41;95001.68;;;19.09;42.26
77366;BME280;66430;50.182;11.704;2023-10-09T12:26:06;94996.92;;;18.96;42.17
77366;BME280;66430;50.182;11.704;2023-10-09T12:28:32;95003.29;;;19.05;42.23
77366;BME280;66430;50.182;11.704;2023-10-09T12:30:57;95001.60;;;19.05;42.27
77366;BME280;66430;50.182;11.704;2023-10-09T12:33:23;94998.47;;;19.07;42.51
77366;BME280;66430;50.182;11.704;2023-10-09T12:35:48;94996.28;;;19.49;42.02
77366;BME280;66430;50.182;11.704;2023-10-09T12:38:13;94992.29;;;19.30;42.32
77366;BME280;66430;50.182;11.704;2023-10-09T12:40:38;94989.54;;;19.57;41.81
77366;BME280;66430;50.182;11.704;2023-10-09T12:43:03;94985.22;;;19.53;42.10
77366;BME280;66430;50.182;11.704;2023-10-09T12:45:29;94978.88;;;19.10;41.89
77366;BME280;66430;50.182;11.704;2023-10-09T12:47:54;94983.62;;;19.23;41.75